Time;durP1;ratioP1;P1;durP2;ratioP2;P2;SDS_P1;SDS_P2;PMS_P1;PMS_P2;Temp;Humidity;BMP_temperature;BMP_pressure;BME280_temperature;BME280_humidity;BME280_pressure;Samples;Min_cycle;Max_cycle;Signal;HPM_P1;HPM_P2
2023/12/07 00:02:03;;;;;;;4.35;2.58;;;;;;;2.89;83.82;99993.34;4964859;28;20074;-51
2023/12/07 00:04:30;;;;;;;6.70;3.35;;;;;;;2.92;84.12;99994.31;4963271;28;20053;-53
2023/12/07 00:06:57;;;;;;;5.40;2.60;;;;;;;2.95;83.34;99994.38;4965046;28;20488;-47
2023/12/07 00:09:24;;;;;;;7.65;3.33;;;;;;;2.95;83.79;99996.09;4965090;28;20050;-52
2023/12/07 00:11:50;;;;;;;4.60;2.33;;;;;;;2.98;83.29;99997.88;4965622;28;20142;-50
2023/12/07 00:14:17;;;;;;;4.78;2.83;;;;;;;3.01;83.03;99990.28;4964721;28;20050;-47
2023/12/07 00:16:44;;;;;;;4.68;2.75;;;;;;;3.02;83.26;99989.44;4966764;28;20046;-43
2023/12/07 00:19:10;;;;;;;10.95;3.03;;;;;;;3.06;83.46;99999.81;4968030;28;20047;-46
2023/12/07 00:21:37;;;;;;;5.57;2.35;;;;;;;3.03;83.46;99992.03;4968037;28;20464;-49
2023/12/07 00:24:04;;;;;;;7.68;3.10;;;;;;;3.04;83.72;99988.66;4971395;28;20182;-43
2023/12/07 00:26:31;;;;;;;7.50;3.28;;;;;;;3.03;83.27;99988.59;4971162;28;20051;-50
2023/12/07 00:28:58;;;;;;;7.28;3.53;;;;;;;3.07;84.03;99988.75;4971805;28;20038;-48
2023/12/07 00:31:24;;;;;;;8.15;2.13;;;;;;;3.10;83.69;99992.22;4972353;28;20054;-53
2023/12/07 00:33:51;;;;;;;7.63;2.63;;;;;;;3.10;83.53;99984.53;4971709;28;20066;-46
2023/12/07 00:36:18;;;;;;;5.28;2.97;;;;;;;3.11;83.37;99971.78;4972160;28;20515;-50
2023/12/07 00:38:45;;;;;;;5.30;3.00;;;;;;;3.16;83.38;99964.22;4972332;28;20055;-50
2023/12/07 00:41:12;;;;;;;8.30;2.97;;;;;;;3.16;83.92;99959.09;4966798;28;20043;-47
2023/12/07 00:43:39;;;;;;;4.55;1.85;;;;;;;3.15;83.93;99960.81;4966670;28;20410;-47
2023/12/07 00:46:07;;;;;;;4.63;2.75;;;;;;;3.19;83.50;99962.63;4967559;28;20046;-41
2023/12/07 00:48:34;;;;;;;8.20;3.55;;;;;;;3.18;83.57;99955.75;4970442;28;20667;-44
2023/12/07 00:51:01;;;;;;;10.45;2.90;;;;;;;3.21;84.21;99957.53;4968256;28;20149;-47
2023/12/07 00:53:28;;;;;;;5.53;2.92;;;;;;;3.18;84.14;99955.75;4962810;28;20051;-43
2023/12/07 00:55:55;;;;;;;3.20;1.52;;;;;;;3.24;83.55;99952.47;4967705;28;20047;-46
2023/12/07 00:58:21;;;;;;;3.35;2.30;;;;;;;3.27;83.71;99950.00;4968518;28;20046;-47
2023/12/07 01:00:48;;;;;;;6.95;2.80;;;;;;;3.29;83.87;99948.34;4968297;28;20074;-44
2023/12/07 01:03:15;;;;;;;7.47;2.28;;;;;;;3.33;83.30;99950.16;4970382;28;20459;-44
2023/12/07 01:05:41;;;;;;;11.00;2.97;;;;;;;3.32;83.78;99945.00;4972367;28;20125;-47
2023/12/07 01:08:08;;;;;;;5.97;2.45;;;;;;;3.34;83.37;99945.88;4969898;28;20051;-45
2023/12/07 01:10:35;;;;;;;8.82;2.83;;;;;;;3.37;83.44;99945.13;4969451;28;20523;-50
2023/12/07 01:13:02;;;;;;;4.55;2.38;;;;;;;3.36;83.33;99940.81;4969733;28;20550;-44
2023/12/07 01:15:29;;;;;;;3.90;2.28;;;;;;;3.39;83.31;99938.34;4963825;28;20047;-50
2023/12/07 01:17:55;;;;;;;4.15;2.22;;;;;;;3.41;83.26;99949.50;4963265;28;20053;-47
2023/12/07 01:20:22;;;;;;;5.22;2.35;;;;;;;3.39;83.03;99943.47;4969764;28;20054;-46
2023/12/07 01:22:49;;;;;;;5.05;3.33;;;;;;;3.42;82.90;99946.09;4961596;28;20058;-46
2023/12/07 01:25:21;;;;;;;8.68;2.78;;;;;;;3.39;83.08;99949.47;4966296;28;20050;-47
2023/12/07 01:27:48;;;;;;;3.00;1.83;;;;;;;3.42;83.12;99943.53;4972817;28;20470;-54
2023/12/07 01:30:15;;;;;;;7.55;2.78;;;;;;;3.44;82.79;99941.88;4969161;28;20405;-49
2023/12/07 01:32:42;;;;;;;6.45;3.17;;;;;;;3.45;82.34;99941.06;4968623;28;20060;-49
2023/12/07 01:35:10;;;;;;;5.75;2.25;;;;;;;3.39;83.24;99939.22;4969295;28;20050;-47
2023/12/07 01:37:38;;;;;;;6.28;3.05;;;;;;;3.46;82.74;99940.22;4969028;28;20138;-46
2023/12/07 01:40:10;;;;;;;4.60;2.35;;;;;;;3.42;83.23;99923.06;4962230;28;20051;-50
2023/12/07 01:42:38;;;;;;;3.35;1.95;;;;;;;3.47;82.79;99924.03;4968405;28;20101;-45
2023/12/07 01:45:07;;;;;;;8.13;3.53;;;;;;;3.46;83.14;99919.75;4966040;28;20121;-44
2023/12/07 01:47:36;;;;;;;5.80;2.55;;;;;;;3.49;83.02;99919.81;4970209;28;20050;-48
2023/12/07 01:50:05;;;;;;;5.95;2.90;;;;;;;3.46;82.94;99909.50;4968376;28;20053;-46
2023/12/07 01:52:34;;;;;;;10.60;2.15;;;;;;;3.48;82.96;99902.72;4965692;28;20400;-43
2023/12/07 01:55:03;;;;;;;9.40;3.53;;;;;;;3.46;82.94;99904.38;4970324;28;20054;-43
2023/12/07 01:57:30;;;;;;;8.18;4.10;;;;;;;3.46;83.59;99900.13;4948996;28;20051;-43
2023/12/07 01:59:57;;;;;;;6.85;2.45;;;;;;;3.48;83.03;99892.50;4969327;28;20101;-46
2023/12/07 02:02:25;;;;;;;6.53;2.80;;;;;;;3.48;83.07;99889.94;4960789;28;20058;-49
2023/12/07 02:04:54;;;;;;;4.68;2.55;;;;;;;3.48;82.65;99879.69;4968590;28;20139;-48
2023/12/07 02:07:23;;;;;;;6.47;2.83;;;;;;;3.48;83.02;99882.25;4961481;28;20046;-53
2023/12/07 02:09:51;;;;;;;7.22;2.95;;;;;;;3.49;82.90;99873.72;4950159;28;20039;-51
2023/12/07 02:12:19;;;;;;;5.30;2.67;;;;;;;3.50;83.16;99874.56;4943159;28;20042;-47
2023/12/07 02:14:46;;;;;;;8.70;3.22;;;;;;;3.46;82.78;99864.28;4960400;28;20051;-49
2023/12/07 02:17:19;;;;;;;6.00;3.35;;;;;;;3.47;82.79;99875.38;4960630;28;20058;-44
2023/12/07 02:22:29;;;;;;;6.60;2.85;;;;;;;3.56;83.42;99867.91;5039566;27;20402;-46
2023/12/07 02:27:45;;;;;;;6.28;2.83;;;;;;;3.55;82.94;99858.47;5024069;28;20405;-44
2023/12/07 02:30:13;;;;;;;8.80;4.53;;;;;;;3.54;83.33;99853.31;4989159;28;20053;-46
2023/12/07 02:32:42;;;;;;;9.20;4.28;;;;;;;3.57;83.25;99846.59;4991506;28;20109;-46
2023/12/07 02:35:12;;;;;;;7.63;4.28;;;;;;;3.57;82.83;99846.59;5005426;28;20053;-45
2023/12/07 02:37:43;;;;;;;6.63;2.72;;;;;;;3.56;83.02;99850.00;4989413;28;20392;-49
2023/12/07 02:40:14;;;;;;;6.63;3.38;;;;;;;3.57;83.54;99846.59;4980205;28;20058;-39
2023/12/07 02:42:42;;;;;;;11.43;6.15;;;;;;;3.55;83.43;99837.16;4982337;28;20046;-46
2023/12/07 02:45:10;;;;;;;5.90;3.50;;;;;;;3.56;83.39;99823.50;4976041;28;20117;-49
2023/12/07 02:47:38;;;;;;;8.10;4.32;;;;;;;3.59;83.33;99824.41;4983583;28;20046;-50
2023/12/07 02:50:07;;;;;;;9.02;4.13;;;;;;;3.60;83.55;99833.84;4976701;28;20727;-42
2023/12/07 02:52:34;;;;;;;4.97;3.10;;;;;;;3.61;83.52;99821.91;4987804;28;20050;-46
2023/12/07 02:55:00;;;;;;;6.25;3.85;;;;;;;3.64;83.71;99818.56;4987417;28;20050;-46
2023/12/07 02:57:27;;;;;;;18.60;4.70;;;;;;;3.66;83.72;99822.00;4987999;28;20125;-52
2023/12/07 02:59:54;;;;;;;5.43;4.68;;;;;;;3.68;83.79;99810.97;4985690;28;20060;-50
2023/12/07 03:02:21;;;;;;;6.68;3.08;;;;;;;3.68;83.52;99815.25;4981801;28;20465;-43
2023/12/07 03:04:48;;;;;;;7.85;4.00;;;;;;;3.68;83.36;99818.66;4966932;28;20081;-46
2023/12/07 03:07:14;;;;;;;7.55;3.45;;;;;;;3.70;84.02;99817.00;4983420;28;20137;-42
2023/12/07 03:09:41;;;;;;;5.60;3.92;;;;;;;3.73;83.61;99808.50;4981852;28;20054;-50
2023/12/07 03:12:08;;;;;;;7.68;4.85;;;;;;;3.69;83.74;99799.03;4974880;28;20130;-43
2023/12/07 03:14:34;;;;;;;10.38;3.90;;;;;;;3.69;83.69;99799.88;4976662;28;20569;-45
2023/12/07 03:17:01;;;;;;;10.95;4.78;;;;;;;3.70;83.67;99790.50;4975016;28;20043;-52
2023/12/07 03:19:28;;;;;;;7.15;4.43;;;;;;;3.71;83.72;99787.09;4974127;28;20070;-48
2023/12/07 03:21:54;;;;;;;6.57;3.97;;;;;;;3.68;84.17;99787.06;4969321;28;20058;-52
2023/12/07 03:24:21;;;;;;;5.72;4.43;;;;;;;3.72;83.91;99781.16;4974490;28;20058;-52
2023/12/07 03:26:48;;;;;;;9.90;4.60;;;;;;;3.70;84.08;99770.88;4979182;28;20054;-52
2023/12/07 03:29:14;;;;;;;8.60;5.03;;;;;;;3.72;84.08;99758.97;4983923;28;20063;-41
2023/12/07 03:31:41;;;;;;;8.60;5.68;;;;;;;3.71;84.59;99756.34;4982213;28;20570;-47
2023/12/07 03:34:08;;;;;;;6.20;3.00;;;;;;;3.75;84.04;99747.91;4982695;28;20051;-51
2023/12/07 03:36:34;;;;;;;10.80;4.35;;;;;;;3.73;84.55;99745.34;4978097;28;20051;-53
2023/12/07 03:39:03;;;;;;;9.60;5.47;;;;;;;3.72;84.48;99737.63;4967461;28;20053;-47
2023/12/07 03:41:29;;;;;;;10.85;4.63;;;;;;;3.77;84.58;99735.13;4970331;28;20558;-47
2023/12/07 03:43:56;;;;;;;8.65;5.70;;;;;;;3.77;84.26;99740.25;4965358;28;20051;-41
2023/12/07 03:46:22;;;;;;;10.02;5.38;;;;;;;3.78;85.23;99727.47;4965870;28;20102;-48
2023/12/07 03:48:49;;;;;;;6.15;3.88;;;;;;;3.76;84.52;99734.28;4964837;28;20059;-43
2023/12/07 03:51:16;;;;;;;8.32;3.47;;;;;;;3.81;84.28;99727.53;4963845;28;20106;-51
2023/12/07 03:53:43;;;;;;;5.15;4.25;;;;;;;3.81;84.48;99727.53;4962555;28;20051;-51
2023/12/07 03:56:10;;;;;;;7.97;5.18;;;;;;;3.77;84.89;99720.63;4967624;28;20065;-46
2023/12/07 03:58:37;;;;;;;8.55;4.10;;;;;;;3.81;84.76;99717.28;4961345;28;20070;-44
2023/12/07 04:01:03;;;;;;;8.75;3.35;;;;;;;3.84;84.31;99709.69;4967545;28;20054;-49
2023/12/07 04:03:30;;;;;;;7.28;4.47;;;;;;;3.85;84.92;99710.56;4960309;28;20047;-46
2023/12/07 04:05:57;;;;;;;7.43;4.25;;;;;;;3.84;85.26;99707.09;4965128;28;20170;-44
2023/12/07 04:08:24;;;;;;;4.80;3.25;;;;;;;3.82;84.78;99713.03;4956852;28;20528;-49
2023/12/07 04:10:51;;;;;;;6.97;3.58;;;;;;;3.81;85.21;99701.91;4967464;28;20423;-51
2023/12/07 04:13:18;;;;;;;6.65;4.60;;;;;;;3.83;85.84;99690.03;4967355;28;20101;-47
2023/12/07 04:15:45;;;;;;;7.47;3.22;;;;;;;3.83;85.14;99691.72;4962248;28;20483;-49
2023/12/07 04:18:12;;;;;;;7.15;4.45;;;;;;;3.85;85.91;99684.94;4963192;28;20058;-48
2023/12/07 04:20:38;;;;;;;4.50;3.80;;;;;;;3.90;85.56;99678.19;4974474;28;20074;-45
2023/12/07 04:23:05;;;;;;;8.15;4.55;;;;;;;3.95;85.54;99670.59;4968603;28;20131;-47
2023/12/07 04:25:32;;;;;;;6.13;3.83;;;;;;;3.91;85.51;99676.47;4963805;28;20377;-48
2023/12/07 04:27:59;;;;;;;7.68;4.10;;;;;;;3.96;85.24;99680.00;4969338;28;20054;-46
2023/12/07 04:30:26;;;;;;;7.80;5.50;;;;;;;3.97;85.62;99672.34;4969623;28;20042;-46
2023/12/07 04:32:52;;;;;;;9.38;5.22;;;;;;;4.00;85.37;99671.53;4963260;28;20106;-52
2023/12/07 04:35:19;;;;;;;9.80;4.25;;;;;;;4.06;85.55;99665.66;4968982;28;20111;-49
2023/12/07 04:37:46;;;;;;;7.38;3.60;;;;;;;4.03;85.37;99666.47;4968144;28;20055;-49
2023/12/07 04:40:13;;;;;;;5.72;3.13;;;;;;;4.02;85.80;99669.00;4968595;28;20588;-43
2023/12/07 04:42:39;;;;;;;6.38;4.30;;;;;;;4.02;85.44;99659.59;4965637;28;20519;-45
2023/12/07 04:45:07;;;;;;;7.30;4.45;;;;;;;4.00;85.63;99645.91;4964991;28;20046;-48
2023/12/07 04:47:33;;;;;;;10.77;3.75;;;;;;;4.02;85.44;99649.34;4966285;28;20046;-44
2023/12/07 04:50:00;;;;;;;8.43;3.70;;;;;;;4.03;85.94;99639.97;4968379;28;20050;-51
2023/12/07 04:52:27;;;;;;;5.72;3.65;;;;;;;4.04;85.91;99632.28;4969721;28;20047;-49
2023/12/07 04:54:55;;;;;;;5.07;3.03;;;;;;;4.04;85.95;99628.84;4964741;28;20045;-44
2023/12/07 04:57:21;;;;;;;5.00;3.15;;;;;;;4.01;86.49;99631.41;4961700;28;20058;-42
2023/12/07 04:59:48;;;;;;;8.90;4.72;;;;;;;4.06;85.73;99625.47;4960847;28;20051;-50
2023/12/07 05:02:17;;;;;;;6.57;3.92;;;;;;;4.05;86.04;99623.75;4968419;28;20066;-42
2023/12/07 05:04:44;;;;;;;8.07;4.43;;;;;;;4.08;86.32;99628.94;4968845;28;20051;-42
2023/12/07 05:07:13;;;;;;;7.82;4.13;;;;;;;4.09;85.69;99629.81;4967751;28;20097;-46
2023/12/07 05:09:40;;;;;;;4.93;3.75;;;;;;;4.10;86.20;99627.28;4964114;28;20126;-45
2023/12/07 05:12:07;;;;;;;6.47;3.42;;;;;;;4.15;85.95;99627.34;4964847;28;20058;-48
2023/12/07 05:14:34;;;;;;;5.88;3.95;;;;;;;4.13;86.48;99615.34;4964602;28;20539;-44
2023/12/07 05:17:02;;;;;;;8.13;4.47;;;;;;;4.13;86.34;99620.47;4962638;28;20046;-45
2023/12/07 05:19:29;;;;;;;6.60;4.28;;;;;;;4.19;86.33;99618.88;4967243;28;20055;-45
2023/12/07 05:21:56;;;;;;;7.57;3.65;;;;;;;4.16;86.15;99620.53;4965185;28;20050;-46
2023/12/07 05:24:23;;;;;;;8.55;3.70;;;;;;;4.18;86.37;99590.63;4958450;28;20046;-42
2023/12/07 05:26:50;;;;;;;7.47;4.18;;;;;;;4.21;86.40;99583.00;4963797;28;20053;-50
2023/12/07 05:29:16;;;;;;;6.32;3.85;;;;;;;4.18;86.14;99582.94;4966117;28;20059;-45
2023/12/07 05:31:43;;;;;;;8.35;4.82;;;;;;;4.20;86.20;99578.72;4964558;28;20042;-47
2023/12/07 05:34:10;;;;;;;6.32;3.97;;;;;;;4.19;87.29;99575.28;4968946;28;20047;-50
2023/12/07 05:36:37;;;;;;;5.45;3.08;;;;;;;4.25;86.76;99584.78;4968121;28;20047;-46
2023/12/07 05:39:07;;;;;;;5.43;3.58;;;;;;;4.24;86.60;99580.50;4969661;28;20073;-48
2023/12/07 05:41:33;;;;;;;9.57;3.58;;;;;;;4.23;87.04;99576.22;4970196;28;20411;-47
2023/12/07 05:44:00;;;;;;;9.75;4.60;;;;;;;4.26;87.47;99570.25;4969158;28;20141;-49
2023/12/07 05:46:27;;;;;;;6.00;4.05;;;;;;;4.29;87.16;99576.28;4966672;28;20047;-45
2023/12/07 05:48:54;;;;;;;9.52;4.78;;;;;;;4.30;86.85;99570.34;4969229;28;20054;-43
2023/12/07 05:51:23;;;;;;;5.57;3.70;;;;;;;4.31;87.78;99573.75;4968215;28;20125;-47
2023/12/07 05:53:50;;;;;;;4.90;3.25;;;;;;;4.31;87.72;99574.63;4960750;28;20070;-43
2023/12/07 05:56:20;;;;;;;7.55;3.45;;;;;;;4.32;87.01;99585.75;4968980;28;20054;-52
2023/12/07 05:58:48;;;;;;;6.50;4.22;;;;;;;4.36;87.72;99588.38;4968364;28;20054;-46
2023/12/07 06:01:17;;;;;;;5.88;2.85;;;;;;;4.37;87.90;99595.25;4968913;28;20393;-53
2023/12/07 06:03:45;;;;;;;5.57;4.55;;;;;;;4.43;87.30;99588.47;4968702;28;20058;-42
2023/12/07 06:06:12;;;;;;;7.47;4.10;;;;;;;4.41;87.52;99580.75;4966992;28;20053;-43
2023/12/07 06:08:39;;;;;;;8.13;4.32;;;;;;;4.39;87.82;99577.28;4966563;28;20066;-52
2023/12/07 06:11:05;;;;;;;6.85;3.53;;;;;;;4.42;87.57;99591.88;4956778;28;20062;-45
2023/12/07 06:13:33;;;;;;;5.55;3.47;;;;;;;4.43;88.10;99567.94;4954476;28;21269;-56
2023/12/07 06:16:01;;;;;;;6.75;3.95;;;;;;;4.43;87.42;99568.78;4961494;28;20046;-44
2023/12/07 06:18:28;;;;;;;4.63;3.08;;;;;;;4.49;87.55;99557.75;4964398;28;20476;-50
2023/12/07 06:20:54;;;;;;;6.40;3.53;;;;;;;4.51;87.32;99553.53;4966229;28;20046;-49
2023/12/07 06:23:21;;;;;;;7.57;3.67;;;;;;;4.47;87.56;99544.06;4962727;28;20101;-47
2023/12/07 06:25:49;;;;;;;7.75;3.55;;;;;;;4.48;87.92;99535.53;4963171;28;20506;-45
2023/12/07 06:28:16;;;;;;;6.45;3.80;;;;;;;4.48;88.05;99530.41;4964226;28;20046;-49
2023/12/07 06:30:42;;;;;;;7.53;4.25;;;;;;;4.52;88.13;99532.16;4963441;28;20165;-43
2023/12/07 06:33:09;;;;;;;8.13;4.07;;;;;;;4.53;88.44;99525.34;4963095;28;20058;-45
2023/12/07 06:35:36;;;;;;;6.90;4.32;;;;;;;4.53;88.19;99522.78;4962393;28;20058;-50
2023/12/07 06:38:02;;;;;;;7.70;5.43;;;;;;;4.54;88.74;99519.38;4962541;28;20050;-43
2023/12/07 06:40:29;;;;;;;5.38;3.20;;;;;;;4.55;88.39;99515.94;4964241;28;20055;-43
2023/12/07 06:42:56;;;;;;;5.80;3.80;;;;;;;4.56;87.75;99508.28;4968321;28;20125;-46
2023/12/07 06:45:22;;;;;;;4.13;3.10;;;;;;;4.56;88.05;99505.72;4959055;28;20558;-43
2023/12/07 06:47:49;;;;;;;6.38;3.40;;;;;;;4.59;88.30;99503.19;4962286;28;20422;-46
2023/12/07 06:50:15;;;;;;;5.50;3.92;;;;;;;4.58;87.87;99500.59;4961888;28;20055;-52
2023/12/07 06:52:42;;;;;;;5.95;3.47;;;;;;;4.59;88.02;99487.81;4958906;28;20047;-44
2023/12/07 06:55:10;;;;;;;8.07;4.43;;;;;;;4.60;89.01;99492.09;4959851;28;20512;-49
2023/12/07 06:57:37;;;;;;;6.00;3.63;;;;;;;4.61;89.21;99482.69;4959537;28;20141;-45
2023/12/07 07:00:10;;;;;;;7.35;4.20;;;;;;;4.58;89.37;99480.97;4960136;28;20058;-53
2023/12/07 07:02:39;;;;;;;5.30;3.88;;;;;;;4.60;88.73;99483.53;4956418;28;20051;-43
2023/12/07 07:05:06;;;;;;;6.05;4.32;;;;;;;4.62;88.76;99477.59;4956722;28;20113;-52
2023/12/07 07:07:33;;;;;;;6.53;3.53;;;;;;;4.61;89.10;99475.88;4959608;28;20150;-44
2023/12/07 07:10:00;;;;;;;4.70;3.25;;;;;;;4.66;89.72;99482.75;4961538;28;20059;-48
2023/12/07 07:12:26;;;;;;;5.93;3.55;;;;;;;4.68;89.52;99475.94;4960887;28;20731;-45
2023/12/07 07:14:54;;;;;;;5.45;3.10;;;;;;;4.70;88.55;99464.00;4963336;28;20065;-40
2023/12/07 07:17:21;;;;;;;5.88;3.92;;;;;;;4.70;89.10;99469.97;4958048;28;20047;-43
2023/12/07 07:19:48;;;;;;;5.50;4.18;;;;;;;4.71;88.75;99461.47;4963969;28;20057;-47
2023/12/07 07:22:14;;;;;;;8.40;4.78;;;;;;;4.72;89.81;99462.28;4973112;28;20054;-49
2023/12/07 07:24:41;;;;;;;8.55;4.20;;;;;;;4.72;89.17;99457.16;4976145;28;20460;-48
2023/12/07 07:27:08;;;;;;;5.20;3.28;;;;;;;4.73;89.63;99453.78;4970276;28;20043;-48
2023/12/07 07:29:34;;;;;;;7.57;3.95;;;;;;;4.72;89.71;99446.91;4968641;28;20061;-43
2023/12/07 07:32:01;;;;;;;6.32;3.88;;;;;;;4.76;89.31;99444.41;4969746;28;20050;-45
2023/12/07 07:34:28;;;;;;;11.25;3.78;;;;;;;4.77;89.41;99447.84;4965709;28;20054;-48
2023/12/07 07:36:54;;;;;;;7.40;4.15;;;;;;;4.76;89.39;99440.97;4964107;28;20051;-49
2023/12/07 07:39:21;;;;;;;4.47;2.80;;;;;;;4.79;89.53;99433.31;4963804;28;20062;-44
2023/12/07 07:41:48;;;;;;;5.45;3.60;;;;;;;4.85;88.56;99433.38;4969103;28;20043;-49
2023/12/07 07:44:14;;;;;;;6.80;4.53;;;;;;;4.82;89.49;99427.34;4968603;28;20069;-44
2023/12/07 07:46:41;;;;;;;5.28;3.83;;;;;;;4.85;88.72;99433.38;4963936;28;20054;-47
2023/12/07 07:49:08;;;;;;;6.20;4.28;;;;;;;4.92;88.79;99438.56;4967957;28;20464;-48
2023/12/07 07:51:35;;;;;;;5.60;3.67;;;;;;;4.92;89.24;99430.84;4965220;28;20711;-44
2023/12/07 07:54:01;;;;;;;6.72;4.57;;;;;;;4.90;89.41;99436.00;4961321;28;20070;-46
2023/12/07 07:56:28;;;;;;;5.13;4.30;;;;;;;4.92;89.25;99423.16;4968317;28;20500;-41
2023/12/07 07:58:55;;;;;;;5.68;3.75;;;;;;;4.95;88.79;99423.19;4968394;28;20128;-46
2023/12/07 08:01:21;;;;;;;7.18;3.85;;;;;;;4.95;88.22;99413.81;4964653;28;20051;-45
2023/12/07 08:03:48;;;;;;;6.18;4.80;;;;;;;4.96;88.83;99414.69;4964956;28;20138;-47
2023/12/07 08:06:15;;;;;;;4.95;4.18;;;;;;;4.99;88.45;99415.56;4966899;28;20050;-46
2023/12/07 08:08:42;;;;;;;5.88;3.70;;;;;;;5.01;88.84;99413.00;4970485;28;20043;-49
2023/12/07 08:11:09;;;;;;;7.15;3.83;;;;;;;5.02;88.05;99399.31;4961144;28;20053;-54
2023/12/07 08:13:36;;;;;;;8.55;3.78;;;;;;;5.08;87.58;99401.09;4969209;28;20529;-52
2023/12/07 08:16:07;;;;;;;8.93;5.00;;;;;;;5.06;87.56;99393.38;4967573;28;20097;-48
2023/12/07 08:18:34;;;;;;;6.50;4.20;;;;;;;5.06;88.27;99390.78;4967402;28;20055;-51
2023/12/07 08:21:01;;;;;;;7.47;3.90;;;;;;;5.12;87.58;99388.31;4966774;28;20129;-51
2023/12/07 08:23:27;;;;;;;6.32;3.95;;;;;;;5.14;87.90;99378.88;4968090;28;20049;-49
2023/12/07 08:25:56;;;;;;;6.28;3.75;;;;;;;5.14;87.58;99389.16;4967030;28;20050;-49
2023/12/07 08:28:25;;;;;;;5.63;3.13;;;;;;;5.20;87.14;99393.50;4967606;28;20050;-47
2023/12/07 08:30:52;;;;;;;4.35;3.78;;;;;;;5.23;87.96;99383.25;4965351;28;20093;-43
2023/12/07 08:33:19;;;;;;;4.35;3.13;;;;;;;5.26;88.00;99382.41;4967961;28;20139;-45
2023/12/07 08:35:46;;;;;;;5.55;3.65;;;;;;;5.30;87.56;99381.59;4965065;28;20059;-53
2023/12/07 08:38:12;;;;;;;6.35;3.45;;;;;;;5.26;86.76;99374.69;4965658;28;20111;-49
2023/12/07 08:40:39;;;;;;;9.75;3.47;;;;;;;5.30;86.68;99368.75;4966420;28;20065;-48
2023/12/07 08:43:06;;;;;;;5.55;4.25;;;;;;;5.27;87.81;99364.44;4962243;28;20047;-48
2023/12/07 08:45:32;;;;;;;6.00;4.15;;;;;;;5.27;87.66;99358.47;4968854;28;20053;-51
2023/12/07 08:47:59;;;;;;;4.90;3.45;;;;;;;5.29;87.21;99356.75;4969976;28;20042;-45
2023/12/07 08:50:26;;;;;;;7.32;3.45;;;;;;;5.33;87.34;99361.06;4969205;28;20078;-50
2023/12/07 08:52:53;;;;;;;10.88;4.15;;;;;;;5.36;88.15;99358.53;4970273;28;20046;-44
2023/12/07 08:55:30;;;;;;;7.93;3.10;;;;;;;5.34;87.19;99352.50;4970205;28;20500;-43
2023/12/07 08:57:57;;;;;;;5.57;3.92;;;;;;;5.33;87.98;99358.50;4966646;28;20046;-53
2023/12/07 09:00:25;;;;;;;13.32;3.67;;;;;;;5.33;87.23;99343.09;4981721;28;20412;-54
2023/12/07 09:02:52;;;;;;;8.63;3.70;;;;;;;5.40;87.88;99350.00;4970090;28;20133;-48
2023/12/07 09:05:19;;;;;;;4.57;3.40;;;;;;;5.36;87.33;99348.25;4968808;28;20047;-48
2023/12/07 09:07:46;;;;;;;6.85;5.82;;;;;;;5.36;88.01;99342.25;4969704;28;20067;-46
2023/12/07 09:10:13;;;;;;;7.07;4.88;;;;;;;5.36;88.49;99343.13;4970121;28;20097;-49
2023/12/07 09:12:40;;;;;;;6.75;4.22;;;;;;;5.42;88.21;99333.72;4969669;28;20054;-45
2023/12/07 09:15:07;;;;;;;8.10;4.07;;;;;;;5.45;87.31;99331.19;4962141;28;20053;-44
2023/12/07 09:17:35;;;;;;;5.32;3.63;;;;;;;5.44;88.84;99329.47;4970603;28;20046;-48
2023/12/07 09:20:03;;;;;;;4.72;2.92;;;;;;;5.42;88.65;99326.03;4968423;28;20054;-53
2023/12/07 09:22:30;;;;;;;5.93;3.97;;;;;;;5.38;88.57;99326.00;4963414;28;20054;-46
2023/12/07 09:25:04;;;;;;;10.77;3.83;;;;;;;5.37;88.28;99324.28;4968030;28;20704;-47
2023/12/07 09:27:33;;;;;;;5.43;4.00;;;;;;;5.37;88.25;99313.19;4969290;28;20051;-44
2023/12/07 09:29:59;;;;;;;5.60;3.15;;;;;;;5.43;89.24;99313.19;4969165;28;20407;-42
2023/12/07 09:32:27;;;;;;;7.00;4.00;;;;;;;5.42;89.07;99305.47;4966356;28;20050;-45
2023/12/07 09:35:05;;;;;;;6.50;3.63;;;;;;;5.43;88.29;99308.06;4967518;28;20054;-47
2023/12/07 09:37:31;;;;;;;7.07;3.88;;;;;;;5.43;89.02;99296.94;4966041;28;20050;-46
2023/12/07 09:39:58;;;;;;;9.02;4.35;;;;;;;5.43;89.40;99291.81;4968321;28;20141;-42
2023/12/07 09:42:26;;;;;;;8.07;5.25;;;;;;;5.44;88.61;99288.38;4969068;28;20050;-53
2023/12/07 09:45:02;;;;;;;5.18;3.28;;;;;;;5.50;89.36;99285.84;4968740;28;20134;-54
2023/12/07 09:47:31;;;;;;;9.40;4.32;;;;;;;5.45;89.17;99284.97;4967728;28;20047;-50
2023/12/07 09:50:06;;;;;;;8.48;5.07;;;;;;;5.49;88.26;99284.13;4964382;28;20051;-50
2023/12/07 09:52:32;;;;;;;7.43;4.47;;;;;;;5.50;89.36;99283.25;4960982;28;20062;-43
2023/12/07 09:55:02;;;;;;;6.65;3.58;;;;;;;5.49;89.03;99292.69;4959990;28;20051;-45
2023/12/07 09:57:30;;;;;;;10.65;5.47;;;;;;;5.50;89.27;99290.97;4958521;28;20066;-50
2023/12/07 09:59:58;;;;;;;5.80;4.05;;;;;;;5.53;89.36;99278.16;4962586;28;20054;-48
2023/12/07 10:02:26;;;;;;;6.88;3.55;;;;;;;5.59;88.43;99274.75;4958823;28;20142;-51
2023/12/07 10:05:10;;;;;;;6.63;3.35;;;;;;;5.58;87.97;99261.06;4959245;28;20057;-46
2023/12/07 10:07:40;;;;;;;7.03;3.70;;;;;;;5.63;87.76;99264.50;4958290;28;20047;-46
2023/12/07 10:10:11;;;;;;;5.72;2.92;;;;;;;5.68;88.79;99261.09;4963956;28;20505;-45
2023/12/07 10:12:50;;;;;;;9.18;3.25;;;;;;;5.64;87.53;99255.94;4965704;28;20447;-42
2023/12/07 10:15:19;;;;;;;9.80;4.25;;;;;;;5.66;88.31;99243.97;4965037;28;20133;-47
2023/12/07 10:17:51;;;;;;;6.93;4.68;;;;;;;5.72;88.24;99242.28;4966845;28;20046;-49
2023/12/07 10:20:23;;;;;;;7.22;3.85;;;;;;;5.69;87.73;99242.25;4966435;28;20129;-45
2023/12/07 10:23:08;;;;;;;11.55;3.83;;;;;;;5.72;87.43;99237.13;4964015;28;20419;-44
2023/12/07 10:25:38;;;;;;;6.78;4.05;;;;;;;5.74;87.43;99235.44;4961308;28;20092;-44
2023/12/07 10:28:07;;;;;;;9.38;4.57;;;;;;;5.77;86.58;99235.44;4963067;28;20125;-42
2023/12/07 10:30:35;;;;;;;10.85;5.38;;;;;;;5.80;87.48;99235.44;4957938;28;20145;-48
2023/12/07 10:33:04;;;;;;;5.30;3.10;;;;;;;5.85;86.49;99223.50;4967515;28;20138;-49
2023/12/07 10:35:31;;;;;;;8.27;4.68;;;;;;;5.84;86.93;99219.19;4962733;28;20046;-47
2023/12/07 10:37:59;;;;;;;5.20;4.70;;;;;;;5.89;86.44;99219.22;4963594;28;20057;-43
2023/12/07 10:40:26;;;;;;;6.97;3.28;;;;;;;5.89;86.01;99217.50;4965204;28;20047;-42
2023/12/07 10:42:57;;;;;;;7.10;3.95;;;;;;;5.91;86.71;99210.66;4968604;28;20054;-52
2023/12/07 10:45:29;;;;;;;5.75;3.55;;;;;;;5.91;86.77;99208.06;4962293;28;20488;-53
2023/12/07 10:48:04;;;;;;;8.18;3.90;;;;;;;5.96;86.42;99209.78;4968894;28;20126;-43
2023/12/07 10:50:34;;;;;;;10.70;4.10;;;;;;;6.00;85.53;99212.38;4968563;28;20063;-47
2023/12/07 10:53:10;;;;;;;7.10;3.55;;;;;;;6.08;85.70;99211.59;4972958;28;20522;-46
2023/12/07 10:55:45;;;;;;;9.00;3.63;;;;;;;6.07;85.06;99213.28;4971503;28;20046;-47
2023/12/07 10:58:13;;;;;;;7.80;2.05;;;;;;;6.00;84.70;99196.97;4969712;28;20379;-47
2023/12/07 11:00:46;;;;;;;10.48;2.53;;;;;;;6.07;84.96;99197.84;4970884;28;20439;-47
2023/12/07 11:03:16;;;;;;;3.20;2.03;;;;;;;6.06;85.19;99200.41;4965913;28;20410;-46
2023/12/07 11:05:46;;;;;;;3.97;3.00;;;;;;;6.08;84.34;99173.84;4971130;28;20062;-45
2023/12/07 11:08:50;;;;;;;5.82;4.25;;;;;;;6.04;84.99;99178.16;4972392;28;20054;-49
2023/12/07 11:11:25;;;;;;;6.50;3.38;;;;;;;6.07;85.09;99172.16;4967565;28;20058;-52
2023/12/07 11:14:03;;;;;;;10.32;4.05;;;;;;;6.11;85.20;99168.72;4961393;28;20496;-49
2023/12/07 11:16:31;;;;;;;4.95;3.58;;;;;;;6.12;84.97;99172.16;4964979;28;20055;-48
2023/12/07 11:18:59;;;;;;;5.40;3.15;;;;;;;6.11;84.52;99165.31;4961044;28;20114;-50
2023/12/07 11:21:26;;;;;;;3.78;2.58;;;;;;;6.10;84.73;99166.16;4960678;28;20038;-45
2023/12/07 11:23:54;;;;;;;3.67;1.30;;;;;;;6.12;84.27;99165.28;4979377;28;20501;-49
2023/12/07 11:26:25;;;;;;;6.35;3.40;;;;;;;6.17;84.78;99166.19;4961618;28;20126;-43
2023/12/07 11:28:51;;;;;;;4.47;2.83;;;;;;;6.23;84.77;99173.03;4960205;28;20061;-44
2023/12/07 11:31:19;;;;;;;3.83;2.00;;;;;;;6.24;84.97;99159.31;4963261;28;20413;-43
2023/12/07 11:33:47;;;;;;;5.47;1.67;;;;;;;6.23;83.44;99156.75;4963012;28;20586;-48
2023/12/07 11:36:14;;;;;;;6.00;3.63;;;;;;;6.23;83.35;99161.88;4961251;28;20050;-50
2023/12/07 11:41:44;;;;;;;5.82;3.92;;;;;;;6.26;83.55;99142.19;5050094;27;20404;-47
2023/12/07 11:44:12;;;;;;;3.90;3.15;;;;;;;6.22;83.25;99134.47;5042962;28;20044;-51
2023/12/07 11:46:38;;;;;;;6.15;3.45;;;;;;;6.24;82.81;99123.31;5027859;28;20045;-45
2023/12/07 11:49:10;;;;;;;6.22;3.63;;;;;;;6.27;84.41;99113.03;5042296;28;20044;-53
2023/12/07 11:51:50;;;;;;;5.38;3.35;;;;;;;6.19;83.74;99106.16;5040283;28;20524;-55
2023/12/07 11:54:17;;;;;;;6.55;3.70;;;;;;;6.20;83.07;99097.59;5041191;28;20049;-58